createdAt,value
2018-08-23T00:01:38.783Z,23.97
2018-08-23T00:04:14.452Z,24.00
2018-08-23T00:06:57.875Z,23.60
2018-08-23T00:09:34.838Z,22.10
2018-08-23T00:12:11.326Z,19.90
2018-08-23T00:14:47.772Z,25.67
2018-08-23T00:17:23.503Z,25.63
2018-08-23T00:19:59.793Z,25.90
2018-08-23T00:22:35.933Z,20.80
2018-08-23T00:25:11.568Z,23.80
2018-08-23T00:27:47.485Z,20.00
2018-08-23T00:30:26.954Z,19.77
2018-08-23T00:33:03.794Z,26.50
2018-08-23T00:35:39.318Z,22.80
2018-08-23T00:38:16.103Z,22.90
2018-08-23T00:40:52.275Z,21.13
2018-08-23T00:43:28.242Z,23.27
2018-08-23T00:46:08.133Z,21.93
2018-08-23T00:48:44.221Z,21.90
2018-08-23T00:51:21.053Z,21.63
2018-08-23T00:54:01.899Z,22.13
2018-08-23T00:56:36.800Z,23.63
2018-08-23T00:59:12.955Z,22.90
2018-08-23T01:01:50.311Z,23.17
2018-08-23T01:04:26.613Z,19.37
2018-08-23T01:07:03.298Z,20.00
2018-08-23T01:09:43.470Z,17.60
2018-08-23T01:12:20.181Z,17.03
2018-08-23T01:14:56.051Z,19.53
2018-08-23T01:17:31.278Z,24.97
2018-08-23T01:20:08.456Z,22.53
2018-08-23T01:22:56.873Z,13.43
2018-08-23T01:25:37.981Z,21.23
2018-08-23T01:28:13.907Z,21.70
2018-08-23T01:30:50.042Z,15.83
2018-08-23T01:33:25.594Z,15.50
2018-08-23T01:36:01.100Z,16.77
2018-08-23T01:38:36.312Z,18.20
2018-08-23T01:41:13.891Z,21.40
2018-08-23T01:43:49.682Z,19.83
2018-08-23T01:46:31.168Z,19.30
2018-08-23T01:49:06.817Z,19.80
2018-08-23T01:51:43.219Z,20.80
2018-08-23T01:54:19.992Z,18.90
2018-08-23T01:56:55.696Z,16.40
2018-08-23T01:59:31.101Z,15.73
2018-08-23T02:02:11.988Z,16.87
2018-08-23T02:04:48.374Z,18.17
2018-08-23T02:07:24.551Z,17.67
2018-08-23T02:10:01.274Z,13.87
2018-08-23T02:12:37.123Z,19.90
2018-08-23T02:15:12.764Z,18.00
2018-08-23T02:17:52.221Z,18.87
2018-08-23T02:20:28.700Z,17.23
2018-08-23T02:23:05.276Z,23.50
2018-08-23T02:25:41.350Z,23.23
2018-08-23T02:28:16.510Z,16.47
2018-08-23T02:30:53.904Z,20.00
2018-08-23T02:33:29.617Z,17.90
2018-08-23T02:36:23.802Z,18.97
2018-08-23T02:39:04.599Z,18.77
2018-08-23T02:41:42.475Z,18.67
2018-08-23T02:44:17.636Z,18.40
2018-08-23T02:46:53.130Z,17.50
2018-08-23T02:49:29.628Z,17.10
2018-08-23T02:52:05.200Z,22.20
2018-08-23T02:54:41.616Z,17.10
2018-08-23T02:57:18.022Z,17.47
2018-08-23T02:59:53.247Z,24.57
2018-08-23T03:02:29.420Z,19.20
2018-08-23T03:05:04.677Z,18.63
2018-08-23T03:07:40.847Z,23.30
2018-08-23T03:10:16.675Z,21.63
2018-08-23T03:12:52.637Z,27.13
2018-08-23T03:15:28.636Z,21.17
2018-08-23T03:18:05.427Z,17.90
2018-08-23T03:20:40.430Z,18.37
2018-08-23T03:23:15.994Z,19.20
2018-08-23T03:25:51.842Z,20.07
2018-08-23T03:28:27.338Z,20.83
2018-08-23T03:31:04.454Z,17.63
2018-08-23T03:33:39.936Z,20.20
2018-08-23T03:36:15.198Z,15.80
2018-08-23T03:38:51.667Z,18.90
2018-08-23T03:41:26.893Z,17.23
2018-08-23T03:44:03.006Z,18.63
2018-08-23T03:46:51.221Z,16.37
2018-08-23T03:49:33.300Z,19.90
2018-08-23T03:52:09.851Z,23.73
2018-08-23T03:54:55.376Z,17.70
2018-08-23T03:57:36.816Z,23.10
2018-08-23T04:00:11.848Z,15.70
2018-08-23T04:02:47.856Z,19.90
2018-08-23T04:05:23.899Z,20.10
2018-08-23T04:07:59.967Z,17.17
2018-08-23T04:10:35.757Z,17.73
2018-08-23T04:13:11.167Z,15.50
2018-08-23T04:15:47.254Z,17.90
2018-08-23T04:18:22.959Z,65.37
2018-08-23T04:20:59.479Z,20.43
2018-08-23T04:23:34.988Z,17.40
2018-08-23T04:26:10.315Z,22.97
2018-08-23T04:28:46.209Z,16.37
2018-08-23T04:31:22.007Z,17.90
2018-08-23T04:33:58.210Z,15.63
2018-08-23T04:36:34.777Z,36.43
2018-08-23T04:39:10.707Z,20.33
2018-08-23T04:41:47.096Z,23.10
2018-08-23T04:44:29.498Z,17.60
2018-08-23T04:47:05.887Z,29.93
2018-08-23T04:49:41.947Z,19.57
2018-08-23T04:52:17.958Z,23.53
2018-08-23T04:54:53.634Z,17.47
2018-08-23T04:57:28.916Z,24.70
2018-08-23T05:00:05.472Z,18.70
2018-08-23T05:02:41.053Z,20.80
2018-08-23T05:05:16.134Z,20.93
2018-08-23T05:07:51.381Z,17.90
2018-08-23T05:10:27.394Z,18.53
2018-08-23T05:13:03.704Z,14.73
2018-08-23T05:15:39.818Z,16.50
2018-08-23T05:18:15.392Z,24.50
2018-08-23T05:20:51.065Z,21.17
2018-08-23T05:23:26.390Z,20.47
2018-08-23T05:26:05.973Z,18.63
2018-08-23T05:28:46.485Z,15.60
2018-08-23T05:31:22.492Z,18.07
2018-08-23T05:34:00.213Z,19.40
2018-08-23T05:36:35.790Z,15.43
2018-08-23T05:39:11.026Z,21.90
2018-08-23T05:41:47.113Z,17.70
2018-08-23T05:44:22.640Z,17.83
2018-08-23T05:58:35.532Z,26.00
2018-08-23T06:01:10.620Z,17.60
2018-08-23T06:03:46.598Z,18.00
2018-08-23T06:06:22.066Z,21.10
2018-08-23T06:09:02.005Z,18.60
2018-08-23T06:11:37.767Z,18.10
2018-08-23T06:14:14.181Z,23.00
2018-08-23T06:16:58.421Z,23.03
2018-08-23T06:19:34.635Z,18.67
2018-08-23T06:22:09.819Z,21.70
2018-08-23T06:24:45.193Z,25.10
2018-08-23T06:27:21.036Z,25.50
2018-08-23T06:29:56.319Z,22.17
2018-08-23T06:32:32.404Z,25.67
2018-08-23T06:35:08.202Z,18.63
2018-08-23T06:37:47.908Z,18.90
2018-08-23T06:40:23.019Z,24.03
2018-08-23T06:43:05.244Z,17.40
2018-08-23T06:45:40.434Z,17.67
2018-08-23T06:48:15.417Z,19.50
2018-08-23T06:56:21.468Z,29.40
2018-08-23T06:58:57.131Z,14.40
2018-08-23T07:01:38.734Z,17.33
2018-08-23T07:04:14.466Z,20.10
2018-08-23T07:06:49.273Z,21.40
2018-08-23T07:09:24.553Z,23.87
2018-08-23T07:12:05.283Z,20.73
2018-08-23T07:14:40.297Z,24.70
2018-08-23T07:17:21.924Z,19.47
2018-08-23T07:20:01.451Z,20.37
2018-08-23T07:22:36.789Z,16.83
2018-08-23T07:25:14.708Z,24.10
2018-08-23T07:27:50.050Z,27.43
2018-08-23T07:30:26.003Z,31.63
2018-08-23T07:33:02.065Z,33.83
2018-08-23T07:35:37.636Z,31.20
2018-08-23T07:38:13.228Z,22.97
2018-08-23T07:40:49.011Z,25.17
2018-08-23T07:43:24.193Z,33.30
2018-08-23T07:45:59.267Z,25.90
2018-08-23T07:48:35.729Z,29.80
2018-08-23T07:51:18.943Z,29.43
2018-08-23T07:53:57.561Z,28.73
2018-08-23T07:56:33.466Z,30.37
2018-08-23T07:59:08.425Z,16.67
2018-08-23T08:01:44.370Z,17.90
2018-08-23T08:04:20.202Z,16.80
2018-08-23T08:06:55.866Z,23.23
2018-08-23T08:09:30.793Z,17.90
2018-08-23T08:12:10.788Z,30.50
2018-08-23T08:14:46.365Z,32.27
2018-08-23T08:17:30.977Z,23.27
2018-08-23T08:20:08.234Z,20.80
2018-08-23T08:22:43.742Z,13.87
2018-08-23T08:25:20.202Z,21.30
2018-08-23T08:27:55.290Z,21.97
2018-08-23T08:30:42.500Z,18.98
2018-08-23T08:33:20.269Z,14.23
2018-08-23T08:36:01.253Z,20.70
2018-08-23T08:38:36.384Z,14.60
2018-08-23T08:41:12.011Z,13.43
2018-08-23T08:43:46.633Z,18.80
2018-08-23T08:46:22.347Z,17.70
2018-08-23T08:48:57.539Z,16.00
2018-08-23T08:51:32.984Z,22.93
2018-08-23T08:54:08.827Z,17.80
2018-08-23T08:56:45.928Z,13.40
2018-08-23T08:59:21.167Z,13.20
2018-08-23T09:01:55.881Z,17.60
2018-08-23T09:04:36.691Z,11.80
2018-08-23T09:07:11.195Z,19.63
2018-08-23T09:09:45.883Z,24.27
2018-08-23T09:12:20.654Z,23.77
2018-08-23T09:14:55.674Z,16.50
2018-08-23T09:17:36.821Z,23.60
2018-08-23T09:20:13.855Z,29.30
2018-08-23T09:22:55.002Z,29.03
2018-08-23T09:25:43.336Z,24.90
2018-08-23T09:28:19.198Z,31.57
2018-08-23T09:30:54.339Z,26.47
2018-08-23T09:33:30.126Z,30.43
2018-08-23T09:36:06.877Z,29.43
2018-08-23T09:38:42.024Z,35.00
2018-08-23T09:41:17.847Z,30.60
2018-08-23T09:43:52.666Z,33.87
2018-08-23T09:46:28.378Z,32.70
2018-08-23T09:49:07.598Z,19.93
2018-08-23T09:51:43.120Z,38.47
2018-08-23T09:54:24.447Z,36.27
2018-08-23T09:56:59.554Z,30.83
2018-08-23T09:59:36.530Z,23.07
2018-08-23T10:02:17.375Z,31.90
2018-08-23T10:04:55.179Z,25.37
2018-08-23T10:07:36.114Z,21.90
2018-08-23T10:10:16.730Z,28.70
2018-08-23T10:12:58.095Z,32.27
2018-08-23T10:15:38.596Z,22.80
2018-08-23T10:18:19.286Z,26.13
2018-08-23T10:20:59.049Z,25.20
2018-08-23T10:23:34.522Z,17.17
2018-08-23T10:26:26.481Z,18.93
2018-08-23T10:29:02.588Z,18.60
2018-08-23T10:31:38.920Z,23.70
2018-08-23T10:34:14.105Z,14.80
2018-08-23T10:36:49.846Z,16.80
2018-08-23T10:39:25.622Z,18.37
2018-08-23T10:42:01.313Z,15.10
2018-08-23T10:44:36.993Z,16.03
2018-08-23T10:47:16.830Z,22.13
2018-08-23T10:49:52.316Z,16.90
2018-08-23T10:52:27.791Z,18.77
2018-08-23T10:55:03.963Z,17.30
2018-08-23T10:57:39.452Z,13.77
2018-08-23T11:00:15.214Z,16.23
2018-08-23T11:02:50.545Z,15.73
2018-08-23T11:05:26.603Z,10.87
2018-08-23T11:08:07.304Z,13.00
2018-08-23T11:10:48.232Z,15.50
2018-08-23T11:13:28.704Z,10.23
2018-08-23T11:16:09.525Z,14.43
2018-08-23T11:18:49.621Z,14.95
2018-08-23T11:21:27.058Z,8.20
2018-08-23T11:24:02.422Z,9.40
2018-08-23T11:26:37.763Z,9.65
2018-08-23T11:29:13.077Z,9.23
2018-08-23T11:31:48.519Z,13.48
2018-08-23T11:34:24.825Z,9.15
2018-08-23T11:37:00.667Z,11.08
2018-08-23T11:39:36.588Z,13.38
2018-08-23T11:42:12.364Z,12.82
2018-08-23T11:44:48.539Z,9.98
2018-08-23T11:47:24.058Z,9.43
2018-08-23T11:50:00.844Z,8.23
2018-08-23T11:52:36.315Z,6.50
2018-08-23T11:55:13.271Z,9.95
2018-08-23T11:57:49.281Z,12.10
2018-08-23T12:00:25.041Z,8.23
2018-08-23T12:03:00.092Z,9.10
2018-08-23T12:05:35.754Z,14.00
2018-08-23T12:08:10.356Z,6.78
2018-08-23T12:10:45.766Z,7.65
2018-08-23T12:13:21.028Z,8.13
2018-08-23T12:15:56.059Z,8.55
2018-08-23T12:18:34.371Z,8.15
2018-08-23T12:21:09.634Z,7.45
2018-08-23T12:23:45.136Z,6.25
2018-08-23T12:26:20.834Z,7.33
2018-08-23T12:29:00.665Z,7.40
2018-08-23T12:31:37.135Z,12.00
2018-08-23T12:34:12.321Z,7.33
2018-08-23T12:36:53.005Z,8.50
2018-08-23T12:39:34.458Z,5.78
2018-08-23T12:42:14.786Z,5.47
2018-08-23T12:44:53.379Z,6.85
2018-08-23T12:47:28.887Z,7.55
2018-08-23T12:50:04.835Z,8.93
2018-08-23T12:52:41.072Z,8.88
2018-08-23T12:55:16.340Z,5.80
2018-08-23T12:57:51.799Z,5.65
2018-08-23T13:00:27.230Z,6.78
2018-08-23T13:03:02.072Z,8.03
2018-08-23T13:05:38.144Z,7.25
2018-08-23T13:08:12.844Z,6.80
2018-08-23T13:10:47.558Z,6.40
2018-08-23T13:13:22.159Z,5.53
2018-08-23T13:15:57.259Z,5.30
2018-08-23T13:18:32.667Z,7.10
2018-08-23T13:21:08.024Z,6.40
2018-08-23T13:23:46.175Z,13.07
2018-08-23T13:26:25.217Z,9.33
2018-08-23T13:29:01.409Z,8.70
2018-08-23T13:31:37.649Z,7.40
2018-08-23T13:34:12.641Z,8.30
2018-08-23T13:36:47.972Z,7.10
2018-08-23T13:39:24.106Z,7.80
2018-08-23T13:41:58.823Z,9.03
2018-08-23T13:44:34.314Z,7.20
2018-08-23T13:47:09.753Z,14.83
2018-08-23T13:49:45.366Z,6.07
2018-08-23T13:52:20.872Z,10.87
2018-08-23T13:54:56.202Z,11.23
2018-08-23T13:57:31.640Z,11.40
2018-08-23T14:00:07.254Z,11.30
2018-08-23T14:02:43.217Z,13.93
2018-08-23T14:05:18.975Z,6.70
2018-08-23T14:07:54.698Z,9.83
2018-08-23T14:10:30.901Z,13.37
2018-08-23T14:13:06.568Z,9.27
2018-08-23T14:15:47.759Z,17.17
2018-08-23T14:18:23.058Z,9.50
2018-08-23T14:20:58.587Z,9.43
2018-08-23T14:23:33.925Z,10.70
2018-08-23T14:26:09.380Z,6.77
2018-08-23T14:28:44.708Z,7.50
2018-08-23T14:31:21.361Z,13.30
2018-08-23T14:33:57.722Z,10.50
2018-08-23T14:36:33.041Z,7.67
2018-08-23T14:39:11.673Z,10.77
2018-08-23T14:41:48.424Z,10.05
2018-08-23T14:44:23.382Z,6.40
2018-08-23T14:47:04.774Z,9.77
2018-08-23T14:49:40.420Z,12.90
2018-08-23T14:52:15.492Z,7.93
2018-08-23T14:54:51.139Z,13.03
2018-08-23T14:57:32.027Z,9.00
2018-08-23T15:00:07.399Z,10.13
2018-08-23T15:02:43.610Z,6.17
2018-08-23T15:05:19.616Z,9.63
2018-08-23T15:07:54.827Z,8.00
2018-08-23T15:10:30.458Z,11.50
2018-08-23T15:13:06.454Z,11.70
2018-08-23T15:15:47.981Z,8.70
2018-08-23T15:18:23.516Z,10.97
2018-08-23T15:20:58.945Z,13.40
2018-08-23T15:23:33.924Z,11.03
2018-08-23T15:26:08.589Z,10.43
2018-08-23T15:28:43.921Z,6.77
2018-08-23T15:31:20.253Z,11.20
2018-08-23T15:33:55.496Z,7.93
2018-08-23T15:36:31.699Z,8.30
2018-08-23T15:39:11.505Z,9.20
2018-08-23T15:41:46.501Z,10.27
2018-08-23T15:44:21.432Z,9.77
2018-08-23T15:46:58.517Z,9.03
2018-08-23T15:49:34.898Z,6.90
2018-08-23T15:52:10.309Z,8.60
2018-08-23T15:54:45.101Z,8.63
2018-08-23T15:57:20.607Z,16.03
2018-08-23T15:59:55.638Z,9.87
2018-08-23T16:02:31.769Z,12.53
2018-08-23T16:05:07.970Z,9.17
2018-08-23T16:07:43.105Z,10.13
2018-08-23T16:10:18.959Z,10.90
2018-08-23T16:12:54.060Z,12.13
2018-08-23T16:15:29.375Z,9.17
2018-08-23T16:18:10.409Z,12.70
2018-08-23T16:20:51.857Z,13.10
2018-08-23T16:23:26.724Z,13.40
2018-08-23T16:26:01.382Z,11.07
2018-08-23T16:28:35.936Z,9.90
2018-08-23T16:31:11.527Z,12.03
2018-08-23T16:33:46.219Z,11.03
2018-08-23T16:36:22.008Z,9.67
2018-08-23T16:38:57.420Z,12.90
2018-08-23T16:41:32.468Z,11.43
2018-08-23T16:44:08.724Z,12.70
2018-08-23T16:46:44.633Z,9.37
2018-08-23T16:49:20.369Z,16.13
2018-08-23T16:51:55.768Z,8.83
2018-08-23T16:54:30.946Z,14.87
2018-08-23T16:57:05.847Z,11.57
2018-08-23T16:59:41.320Z,11.00
2018-08-23T17:02:16.148Z,9.97
2018-08-23T17:04:51.125Z,11.80
2018-08-23T17:07:26.659Z,11.50
2018-08-23T17:10:02.348Z,14.03
2018-08-23T17:12:37.277Z,11.17
2018-08-23T17:15:14.527Z,9.37
2018-08-23T17:17:55.522Z,12.10
2018-08-23T17:20:31.258Z,7.30
2018-08-23T17:23:06.701Z,13.23
2018-08-23T17:25:41.624Z,20.93
2018-08-23T17:28:18.614Z,10.67
2018-08-23T17:30:54.222Z,15.50
2018-08-23T17:33:30.417Z,16.10
2018-08-23T17:36:05.781Z,10.53
2018-08-23T17:38:41.427Z,8.40
2018-08-23T17:41:16.578Z,17.43
2018-08-23T17:43:51.948Z,27.57
2018-08-23T17:46:27.066Z,11.97
2018-08-23T17:49:01.842Z,11.73
2018-08-23T17:51:37.104Z,14.80
2018-08-23T17:54:12.543Z,11.40
2018-08-23T17:56:47.198Z,20.37
2018-08-23T17:59:21.809Z,11.17
2018-08-23T18:01:56.446Z,19.13
2018-08-23T18:04:31.579Z,16.13
2018-08-23T18:07:07.220Z,8.90
2018-08-23T18:09:43.805Z,14.47
2018-08-23T18:12:20.272Z,9.53
2018-08-23T18:14:55.264Z,12.63
2018-08-23T18:17:30.782Z,8.70
2018-08-23T18:20:06.219Z,9.13
2018-08-23T18:22:41.944Z,10.70
2018-08-23T18:25:19.537Z,9.20
2018-08-23T18:27:54.760Z,8.97
2018-08-23T18:30:32.723Z,16.27
2018-08-23T18:33:08.243Z,14.50
2018-08-23T18:35:43.538Z,15.10
2018-08-23T18:38:19.985Z,11.57
2018-08-23T18:40:56.021Z,19.30
2018-08-23T18:43:31.597Z,14.77
2018-08-23T18:46:08.053Z,14.17
2018-08-23T18:48:43.099Z,15.17
2018-08-23T18:51:18.789Z,16.80
2018-08-23T18:53:54.943Z,13.47
2018-08-23T18:56:30.896Z,18.97
2018-08-23T18:59:07.344Z,15.77
2018-08-23T19:01:42.612Z,14.70
2018-08-23T19:04:17.606Z,16.80
2018-08-23T19:06:54.023Z,14.07
2018-08-23T19:09:29.321Z,12.47
2018-08-23T19:14:46.505Z,18.30
2018-08-23T19:17:27.440Z,14.93
2018-08-23T19:20:02.892Z,17.20
2018-08-23T19:22:38.248Z,15.80
2018-08-23T19:25:13.232Z,14.83
2018-08-23T19:27:48.583Z,22.13
2018-08-23T19:30:23.291Z,24.77
2018-08-23T19:32:58.633Z,18.43
2018-08-23T19:35:34.281Z,13.17
2018-08-23T19:38:09.470Z,11.93
2018-08-23T19:40:45.306Z,11.27
2018-08-23T19:43:22.465Z,13.77
2018-08-23T19:46:03.088Z,17.47
2018-08-23T19:48:38.294Z,12.03
2018-08-23T19:51:13.918Z,13.73
2018-08-23T19:53:50.171Z,13.70
2018-08-23T19:56:25.120Z,14.87
2018-08-23T19:59:00.313Z,21.60
2018-08-23T20:01:35.755Z,19.33
2018-08-23T20:04:10.747Z,15.87
2018-08-23T20:06:45.913Z,13.53
2018-08-23T20:09:20.416Z,16.37
2018-08-23T20:12:01.678Z,17.10
2018-08-23T20:14:37.535Z,18.83
2018-08-23T20:17:13.130Z,20.60
2018-08-23T20:19:48.521Z,18.63
2018-08-23T20:22:23.538Z,21.13
2018-08-23T20:24:58.967Z,18.33
2018-08-23T20:27:34.508Z,18.37
2018-08-23T20:30:10.079Z,15.20
2018-08-23T20:32:45.489Z,14.23
2018-08-23T20:35:21.083Z,25.30
2018-08-23T20:37:56.704Z,22.00
2018-08-23T20:40:31.367Z,17.43
2018-08-23T20:43:06.477Z,14.10
2018-08-23T20:45:42.491Z,15.23
2018-08-23T20:48:17.955Z,13.87
2018-08-23T20:50:53.174Z,14.27
2018-08-23T20:53:28.268Z,12.63
2018-08-23T20:56:03.363Z,15.40
2018-08-23T20:58:39.073Z,22.23
2018-08-23T21:01:14.350Z,16.07
2018-08-23T21:03:49.457Z,21.20
2018-08-23T21:06:25.067Z,25.50
2018-08-23T21:08:59.982Z,21.10
2018-08-23T21:11:35.774Z,14.67
2018-08-23T21:14:12.245Z,16.60
2018-08-23T21:16:47.752Z,14.03
2018-08-23T21:19:23.100Z,14.23
2018-08-23T21:21:58.655Z,12.10
2018-08-23T21:24:34.355Z,16.27
2018-08-23T21:27:10.430Z,12.60
2018-08-23T21:29:46.209Z,29.67
2018-08-23T21:32:22.089Z,13.73
2018-08-23T21:34:57.591Z,20.93
2018-08-23T21:37:33.210Z,16.87
2018-08-23T21:40:09.111Z,12.23
2018-08-23T21:42:44.965Z,12.60
2018-08-23T21:45:20.593Z,10.57
2018-08-23T21:47:56.392Z,14.70
2018-08-23T21:50:33.145Z,13.43
2018-08-23T21:53:09.865Z,12.30
2018-08-23T21:55:45.223Z,16.17
2018-08-23T21:58:20.946Z,12.10
2018-08-23T22:01:01.924Z,14.20
2018-08-23T22:03:38.540Z,15.73
2018-08-23T22:06:14.841Z,12.57
2018-08-23T22:08:50.529Z,18.13
2018-08-23T22:11:25.679Z,10.97
2018-08-23T22:14:02.382Z,12.43
2018-08-23T22:16:39.259Z,10.90
2018-08-23T22:19:16.807Z,11.50
2018-08-23T22:21:54.233Z,12.37
2018-08-23T22:24:32.248Z,9.23
2018-08-23T22:27:09.151Z,17.30
2018-08-23T22:29:46.362Z,14.83
2018-08-23T22:32:23.363Z,10.97
2018-08-23T22:34:59.380Z,12.43
2018-08-23T22:37:35.827Z,10.70
2018-08-23T22:40:11.862Z,13.60
2018-08-23T22:42:47.731Z,11.00
2018-08-23T22:45:23.063Z,10.93
2018-08-23T22:47:59.693Z,14.80
2018-08-23T22:50:36.035Z,12.63
2018-08-23T22:53:13.157Z,9.83
2018-08-23T22:55:50.278Z,11.50
2018-08-23T22:58:26.531Z,12.60
2018-08-23T23:01:02.369Z,11.47
2018-08-23T23:03:42.928Z,12.00
2018-08-23T23:06:18.936Z,12.80
2018-08-23T23:08:54.033Z,14.80
2018-08-23T23:11:30.387Z,12.27
2018-08-23T23:14:06.113Z,13.50
2018-08-23T23:16:41.610Z,13.87
2018-08-23T23:19:16.950Z,13.40
2018-08-23T23:21:51.789Z,16.30
2018-08-23T23:24:32.683Z,17.70
2018-08-23T23:27:08.132Z,13.73
2018-08-23T23:29:44.302Z,10.13
2018-08-23T23:32:19.611Z,16.70
2018-08-23T23:34:55.492Z,13.30
2018-08-23T23:37:31.510Z,12.57
2018-08-23T23:40:07.331Z,11.60
2018-08-23T23:42:42.543Z,12.77
2018-08-23T23:45:17.095Z,14.43
2018-08-23T23:47:52.727Z,13.90
2018-08-23T23:50:28.268Z,15.80
2018-08-23T23:53:04.210Z,16.20
2018-08-23T23:55:40.207Z,18.00
2018-08-23T23:58:15.090Z,17.60
